createdAt,value
2023-02-03T00:01:56.285Z,11.70
2023-02-03T00:04:24.475Z,11.70
2023-02-03T00:06:51.342Z,11.70
2023-02-03T00:09:20.952Z,11.70
2023-02-03T00:11:47.993Z,11.70
2023-02-03T00:14:15.775Z,11.60
2023-02-03T00:16:42.614Z,11.60
2023-02-03T00:19:09.386Z,11.60
2023-02-03T00:21:37.545Z,11.60
2023-02-03T00:24:05.342Z,11.60
2023-02-03T00:26:33.246Z,11.60
2023-02-03T00:29:01.087Z,11.60
2023-02-03T00:31:30.288Z,11.60
2023-02-03T00:33:57.901Z,11.60
2023-02-03T00:36:25.590Z,11.50
2023-02-03T00:38:54.240Z,11.50
2023-02-03T00:41:21.973Z,11.50
2023-02-03T00:43:49.183Z,11.50
2023-02-03T00:46:21.600Z,11.50
2023-02-03T00:48:48.516Z,11.50
2023-02-03T00:51:16.686Z,11.50
2023-02-03T00:53:43.754Z,11.40
2023-02-03T00:56:12.895Z,11.40
2023-02-03T00:58:40.514Z,11.40
2023-02-03T01:01:08.294Z,11.40
2023-02-03T01:03:35.437Z,11.40
2023-02-03T01:06:19.721Z,11.40
2023-02-03T01:08:48.276Z,11.50
2023-02-03T01:11:27.661Z,11.60
2023-02-03T01:13:56.582Z,11.50
2023-02-03T01:16:26.489Z,11.50
2023-02-03T01:18:55.367Z,11.50
2023-02-03T01:21:26.581Z,11.60
2023-02-03T01:23:54.259Z,11.50
2023-02-03T01:26:23.529Z,11.50
2023-02-03T01:28:55.415Z,11.50
2023-02-03T01:31:28.966Z,11.50
2023-02-03T01:33:56.524Z,11.50
2023-02-03T01:36:26.140Z,11.50
2023-02-03T01:38:53.584Z,11.50
2023-02-03T01:41:28.317Z,11.50
2023-02-03T01:43:57.147Z,11.50
2023-02-03T01:46:44.971Z,11.50
2023-02-03T01:49:18.401Z,11.50
2023-02-03T01:51:46.745Z,11.50
2023-02-03T01:54:19.347Z,11.50
2023-02-03T01:56:51.076Z,11.50
2023-02-03T01:59:21.665Z,11.50
2023-02-03T02:01:49.073Z,11.60
2023-02-03T02:04:16.276Z,11.60
2023-02-03T02:06:43.140Z,11.60
2023-02-03T02:09:10.057Z,11.50
2023-02-03T02:11:37.880Z,11.60
2023-02-03T02:14:04.877Z,11.50
2023-02-03T02:17:03.496Z,11.60
2023-02-03T02:19:52.353Z,11.60
2023-02-03T02:22:43.206Z,11.60
2023-02-03T02:25:39.772Z,11.60
2023-02-03T02:28:37.461Z,11.60
2023-02-03T02:31:43.943Z,11.60
2023-02-03T02:34:23.386Z,11.50
2023-02-03T02:37:11.652Z,11.50
2023-02-03T02:40:10.005Z,11.50
2023-02-03T02:43:10.021Z,11.50
2023-02-03T02:45:58.548Z,11.50
2023-02-03T02:48:51.244Z,11.50
2023-02-03T02:51:18.946Z,11.50
2023-02-03T02:53:55.114Z,11.40
2023-02-03T02:56:23.903Z,11.50
2023-02-03T02:58:51.944Z,11.40
2023-02-03T03:01:19.401Z,11.50
2023-02-03T03:03:46.987Z,11.40
2023-02-03T03:06:35.824Z,11.50
2023-02-03T03:09:08.489Z,11.50
2023-02-03T03:11:47.298Z,11.40
2023-02-03T03:14:17.264Z,11.50
2023-02-03T03:16:57.695Z,11.50
2023-02-03T03:19:28.213Z,11.40
2023-02-03T03:22:01.238Z,11.50
2023-02-03T03:24:34.731Z,11.40
2023-02-03T03:27:13.214Z,11.50
2023-02-03T03:29:45.864Z,11.50
2023-02-03T03:32:12.991Z,11.50
2023-02-03T03:34:40.623Z,11.40
2023-02-03T03:37:19.211Z,11.50
2023-02-03T03:39:53.763Z,11.50
2023-02-03T03:42:31.540Z,11.40
2023-02-03T03:45:10.082Z,11.50
2023-02-03T03:47:54.012Z,11.40
2023-02-03T03:50:26.911Z,11.40
2023-02-03T03:52:58.025Z,11.40
2023-02-03T03:55:29.028Z,11.40
2023-02-03T03:58:03.467Z,11.50
2023-02-03T04:00:33.713Z,11.50
2023-02-03T04:03:06.689Z,11.50
2023-02-03T04:05:34.621Z,11.50
2023-02-03T04:08:03.757Z,11.50
2023-02-03T04:10:35.919Z,11.50
2023-02-03T04:13:04.423Z,11.50
2023-02-03T04:15:32.194Z,11.50
2023-02-03T04:18:01.712Z,11.50
2023-02-03T04:20:32.359Z,11.40
2023-02-03T04:23:01.101Z,11.40
2023-02-03T04:25:28.011Z,11.40
2023-02-03T04:27:55.763Z,11.40
2023-02-03T04:30:22.866Z,11.40
2023-02-03T04:32:49.908Z,11.40
2023-02-03T04:35:16.975Z,11.40
2023-02-03T04:37:44.478Z,11.30
2023-02-03T04:40:12.089Z,11.30
2023-02-03T04:42:39.870Z,11.30
2023-02-03T04:45:09.936Z,11.30
2023-02-03T04:47:37.186Z,11.30
2023-02-03T04:50:04.215Z,11.30
2023-02-03T04:52:32.570Z,11.30
2023-02-03T04:55:00.688Z,11.30
2023-02-03T04:57:27.446Z,11.30
2023-02-03T04:59:54.146Z,11.30
2023-02-03T05:02:22.622Z,11.30
2023-02-03T05:04:49.630Z,11.30
2023-02-03T05:07:17.164Z,11.20
2023-02-03T05:09:43.917Z,11.30
2023-02-03T05:12:10.726Z,11.40
2023-02-03T05:14:37.484Z,11.30
2023-02-03T05:17:04.201Z,11.30
2023-02-03T05:19:30.964Z,11.30
2023-02-03T05:21:57.725Z,11.40
2023-02-03T05:24:24.460Z,11.40
2023-02-03T05:26:52.409Z,11.40
2023-02-03T05:29:19.449Z,11.30
2023-02-03T05:31:47.101Z,11.40
2023-02-03T05:34:15.059Z,11.40
2023-02-03T05:36:41.823Z,11.40
2023-02-03T05:39:08.733Z,11.40
2023-02-03T05:41:54.531Z,11.40
2023-02-03T05:44:27.986Z,11.40
2023-02-03T05:46:56.457Z,11.40
2023-02-03T05:49:24.476Z,11.40
2023-02-03T05:51:52.933Z,11.40
2023-02-03T05:54:19.673Z,11.40
2023-02-03T05:56:46.455Z,11.50
2023-02-03T05:59:14.292Z,11.40
2023-02-03T06:01:41.238Z,11.50
2023-02-03T06:04:09.155Z,11.50
2023-02-03T06:06:37.791Z,11.50
2023-02-03T06:09:08.857Z,11.40
2023-02-03T06:11:35.996Z,11.50
2023-02-03T06:14:04.834Z,11.40
2023-02-03T06:16:31.651Z,11.40
2023-02-03T06:18:59.764Z,11.40
2023-02-03T06:21:27.181Z,11.40
2023-02-03T06:23:56.627Z,11.50
2023-02-03T06:26:25.201Z,11.50
2023-02-03T06:28:51.985Z,11.40
2023-02-03T06:31:18.769Z,11.50
2023-02-03T06:33:46.507Z,11.50
2023-02-03T06:36:13.243Z,11.40
2023-02-03T06:38:39.936Z,11.40
2023-02-03T06:41:08.528Z,11.40
2023-02-03T06:43:37.614Z,11.40
2023-02-03T06:46:04.943Z,11.40
2023-02-03T06:48:31.718Z,11.40
2023-02-03T06:51:00.161Z,11.40
2023-02-03T06:53:26.907Z,11.50
2023-02-03T06:55:56.236Z,11.40
2023-02-03T06:58:23.002Z,11.40
2023-02-03T07:00:51.095Z,11.50
2023-02-03T07:03:17.934Z,11.50
2023-02-03T07:05:45.714Z,11.50
2023-02-03T07:08:13.598Z,11.50
2023-02-03T07:10:42.030Z,11.50
2023-02-03T07:13:08.980Z,11.50
2023-02-03T07:15:35.811Z,11.50
2023-02-03T07:18:03.725Z,11.50
2023-02-03T07:20:33.527Z,11.50
2023-02-03T07:23:00.364Z,11.50
2023-02-03T07:25:27.300Z,11.50
2023-02-03T07:27:54.624Z,11.50
2023-02-03T07:30:21.711Z,11.50
2023-02-03T07:32:52.304Z,11.50
2023-02-03T07:35:20.221Z,11.50
2023-02-03T07:37:47.311Z,11.50
2023-02-03T07:40:15.561Z,11.50
2023-02-03T07:42:43.535Z,11.50
2023-02-03T07:45:13.144Z,11.50
2023-02-03T07:47:41.276Z,11.50
2023-02-03T07:50:08.940Z,11.60
2023-02-03T07:52:35.726Z,11.60
2023-02-03T07:55:04.266Z,11.50
2023-02-03T07:57:30.942Z,11.60
2023-02-03T07:59:57.684Z,11.60
2023-02-03T08:02:24.355Z,11.60
2023-02-03T08:04:52.025Z,11.60
2023-02-03T08:07:18.761Z,11.60
2023-02-03T08:09:45.534Z,11.60
2023-02-03T08:12:13.686Z,11.60
2023-02-03T08:14:40.384Z,11.60
2023-02-03T08:17:07.146Z,11.60
2023-02-03T08:19:34.261Z,11.60
2023-02-03T08:22:01.171Z,11.60
2023-02-03T08:24:34.989Z,11.60
2023-02-03T08:27:01.876Z,11.60
2023-02-03T08:29:31.820Z,11.60
2023-02-03T08:31:58.867Z,11.70
2023-02-03T08:34:26.598Z,11.70
2023-02-03T08:36:55.745Z,11.60
2023-02-03T08:39:23.013Z,11.70
2023-02-03T08:41:49.793Z,11.60
2023-02-03T08:44:18.576Z,11.70
2023-02-03T08:46:46.051Z,11.70
2023-02-03T08:49:12.760Z,11.70
2023-02-03T08:51:40.759Z,11.70
2023-02-03T08:54:07.502Z,11.70
2023-02-03T08:56:34.240Z,11.80
2023-02-03T08:59:03.246Z,11.80
2023-02-03T09:01:30.077Z,11.80
2023-02-03T09:03:57.303Z,11.80
2023-02-03T09:06:26.272Z,11.80
2023-02-03T09:08:53.238Z,11.80
2023-02-03T09:11:20.023Z,11.80
2023-02-03T09:13:47.869Z,11.80
2023-02-03T09:16:21.362Z,11.80
2023-02-03T09:18:48.644Z,11.80
2023-02-03T09:21:31.570Z,11.90
2023-02-03T09:24:03.828Z,11.80
2023-02-03T09:26:30.599Z,11.90
2023-02-03T09:28:57.440Z,11.90
2023-02-03T09:31:24.257Z,11.90
2023-02-03T09:33:51.087Z,11.90
2023-02-03T09:36:17.842Z,11.90
2023-02-03T09:38:44.637Z,11.90
2023-02-03T09:41:12.374Z,11.90
2023-02-03T09:44:05.949Z,11.90
2023-02-03T09:47:00.782Z,11.90
2023-02-03T09:49:34.827Z,11.90
2023-02-03T09:52:09.412Z,11.90
2023-02-03T09:54:48.332Z,11.90
2023-02-03T09:57:29.041Z,11.90
2023-02-03T10:00:02.379Z,11.90
2023-02-03T10:02:54.925Z,12.00
2023-02-03T10:05:45.603Z,11.90
2023-02-03T10:08:25.672Z,11.90
2023-02-03T10:11:15.263Z,11.90
2023-02-03T10:14:13.224Z,12.00
2023-02-03T10:17:19.193Z,11.90
2023-02-03T10:19:53.213Z,11.90
2023-02-03T10:22:25.864Z,11.80
2023-02-03T10:25:00.903Z,11.80
2023-02-03T10:27:28.899Z,11.80
2023-02-03T10:30:04.824Z,11.80
2023-02-03T10:32:31.632Z,11.70
2023-02-03T10:34:58.617Z,11.70
2023-02-03T10:37:37.404Z,11.80
2023-02-03T10:40:06.132Z,11.80
2023-02-03T10:42:52.831Z,11.90
2023-02-03T10:45:21.077Z,11.80
2023-02-03T10:47:54.889Z,11.70
2023-02-03T10:50:31.374Z,11.70
2023-02-03T10:53:25.447Z,11.70
2023-02-03T10:56:03.089Z,11.80
2023-02-03T10:58:34.045Z,11.70
2023-02-03T11:01:15.749Z,11.80
2023-02-03T11:03:53.854Z,11.80
2023-02-03T11:06:20.632Z,11.80
2023-02-03T11:08:49.646Z,11.80
2023-02-03T11:11:24.789Z,11.80
2023-02-03T11:14:03.701Z,11.80
2023-02-03T11:16:36.901Z,11.80
2023-02-03T11:19:05.650Z,11.90
2023-02-03T11:21:38.671Z,11.90
2023-02-03T11:24:17.126Z,12.00
2023-02-03T11:26:51.241Z,12.00
2023-02-03T11:29:18.134Z,12.00
2023-02-03T11:31:49.871Z,12.10
2023-02-03T11:34:30.007Z,12.10
2023-02-03T11:36:58.393Z,12.10
2023-02-03T11:39:31.573Z,12.20
2023-02-03T11:41:58.395Z,12.20
2023-02-03T11:44:31.205Z,12.20
2023-02-03T11:47:09.589Z,12.20
2023-02-03T11:49:42.117Z,12.20
2023-02-03T11:52:22.369Z,12.30
2023-02-03T11:55:16.406Z,12.30
2023-02-03T11:58:00.381Z,12.30
2023-02-03T12:00:48.467Z,12.30
2023-02-03T12:03:36.819Z,12.30
2023-02-03T12:06:31.025Z,12.30
2023-02-03T12:09:22.777Z,12.40
2023-02-03T12:12:15.716Z,12.40
2023-02-03T12:15:05.629Z,12.30
2023-02-03T12:18:11.476Z,12.30
2023-02-03T12:20:43.244Z,12.30
2023-02-03T12:23:18.697Z,12.30
2023-02-03T12:26:05.967Z,12.30
2023-02-03T12:28:49.576Z,12.30
2023-02-03T12:31:53.060Z,12.30
2023-02-03T12:34:30.464Z,12.30
2023-02-03T12:36:58.715Z,12.30
2023-02-03T12:39:40.419Z,12.30
2023-02-03T12:42:27.763Z,12.30
2023-02-03T12:45:14.082Z,12.30
2023-02-03T12:47:54.492Z,12.30
2023-02-03T12:50:30.082Z,12.30
2023-02-03T12:53:16.137Z,12.30
2023-02-03T12:56:14.012Z,12.30
2023-02-03T12:58:51.728Z,12.30
2023-02-03T13:01:37.985Z,12.30
2023-02-03T13:04:29.858Z,12.30
2023-02-03T13:07:12.956Z,12.30
2023-02-03T13:09:51.651Z,12.30
2023-02-03T13:12:31.630Z,12.30
2023-02-03T13:15:27.428Z,12.20
2023-02-03T13:18:29.995Z,12.20
2023-02-03T13:20:57.418Z,12.20
2023-02-03T13:23:25.522Z,12.20
2023-02-03T13:26:14.324Z,12.20
2023-02-03T13:29:00.366Z,12.20
2023-02-03T13:31:36.673Z,12.20
2023-02-03T13:34:36.949Z,12.20
2023-02-03T13:37:39.691Z,12.20
2023-02-03T13:40:33.021Z,12.20
2023-02-03T13:43:06.014Z,12.20
2023-02-03T13:45:43.390Z,12.10
2023-02-03T13:48:27.082Z,12.10
2023-02-03T13:51:14.957Z,12.20
2023-02-03T13:53:45.129Z,12.20
2023-02-03T13:56:24.013Z,12.10
2023-02-03T13:59:15.816Z,12.10
2023-02-03T14:01:45.095Z,12.10
2023-02-03T14:04:23.782Z,12.10
2023-02-03T14:06:52.807Z,12.10
2023-02-03T14:09:24.498Z,12.10
2023-02-03T14:12:12.641Z,12.10
2023-02-03T14:14:39.471Z,12.10
2023-02-03T14:17:44.039Z,12.10
2023-02-03T14:20:29.495Z,12.10
2023-02-03T14:29:30.626Z,12.10
2023-02-03T14:32:03.338Z,12.10
2023-02-03T14:34:42.601Z,12.20
2023-02-03T14:37:30.711Z,12.10
2023-02-03T14:40:26.134Z,12.10
2023-02-03T14:43:26.977Z,12.10
2023-02-03T14:46:10.048Z,12.10
2023-02-03T14:48:58.863Z,12.10
2023-02-03T14:51:43.037Z,12.10
2023-02-03T14:54:39.960Z,12.10
2023-02-03T14:57:29.878Z,12.20
2023-02-03T15:00:03.336Z,12.20
2023-02-03T15:02:31.288Z,12.20
2023-02-03T15:05:20.312Z,12.10
2023-02-03T15:07:49.587Z,12.10
2023-02-03T15:10:20.918Z,12.10
2023-02-03T15:12:56.217Z,12.10
2023-02-03T15:15:30.287Z,12.10
2023-02-03T15:18:19.517Z,12.00
2023-02-03T15:20:47.759Z,12.00
2023-02-03T15:23:21.796Z,12.00
2023-02-03T15:26:00.036Z,12.00
2023-02-03T15:28:28.659Z,12.00
2023-02-03T15:30:55.371Z,12.00
2023-02-03T15:33:23.181Z,12.00
2023-02-03T15:35:56.914Z,12.00
2023-02-03T15:38:28.845Z,12.00
2023-02-03T15:40:58.861Z,12.00
2023-02-03T15:43:38.335Z,12.00
2023-02-03T15:46:13.158Z,12.00
2023-02-03T15:49:02.010Z,12.10
2023-02-03T15:51:35.933Z,12.10
2023-02-03T15:54:10.314Z,12.10
2023-02-03T15:56:48.453Z,12.00
2023-02-03T15:59:22.746Z,12.10
2023-02-03T16:01:50.235Z,12.00
2023-02-03T16:04:17.461Z,12.00
2023-02-03T16:06:48.975Z,12.00
2023-02-03T16:09:43.667Z,12.00
2023-02-03T16:12:27.175Z,12.00
2023-02-03T16:14:55.673Z,12.10
2023-02-03T16:17:31.739Z,12.00
2023-02-03T16:20:26.766Z,12.00
2023-02-03T16:23:20.092Z,12.00
2023-02-03T16:26:04.170Z,12.00
2023-02-03T16:28:52.558Z,11.90
2023-02-03T16:31:39.962Z,11.90
2023-02-03T16:34:38.995Z,11.90
2023-02-03T16:37:50.442Z,11.90
2023-02-03T16:40:39.021Z,11.90
2023-02-03T16:43:30.984Z,11.90
2023-02-03T16:46:19.066Z,11.90
2023-02-03T16:49:04.756Z,12.00
2023-02-03T16:51:40.402Z,12.00
2023-02-03T16:54:11.111Z,12.00
2023-02-03T16:56:40.001Z,12.00
2023-02-03T16:59:07.108Z,12.00
2023-02-03T17:01:33.857Z,12.00
2023-02-03T17:04:02.733Z,12.00
2023-02-03T17:06:29.914Z,12.00
2023-02-03T17:08:58.592Z,12.00
2023-02-03T17:11:26.990Z,12.00
2023-02-03T17:13:54.206Z,12.00
2023-02-03T17:16:23.924Z,12.00
2023-02-03T17:18:51.386Z,12.00
2023-02-03T17:21:27.693Z,12.00
2023-02-03T17:23:54.664Z,12.00
2023-02-03T17:26:22.875Z,12.00
2023-02-03T17:28:49.584Z,11.90
2023-02-03T17:31:18.960Z,12.00
2023-02-03T17:33:46.739Z,11.90
2023-02-03T17:36:16.007Z,11.90
2023-02-03T17:55:00.343Z,11.90
2023-02-03T17:57:28.048Z,11.80
2023-02-03T17:59:57.105Z,11.80
2023-02-03T18:02:31.323Z,11.80
2023-02-03T18:04:59.154Z,11.80
2023-02-03T18:07:27.367Z,11.80
2023-02-03T18:09:56.259Z,11.80
2023-02-03T18:12:23.296Z,11.80
2023-02-03T18:14:52.396Z,11.70
2023-02-03T18:17:23.453Z,11.70
2023-02-03T18:19:55.732Z,11.70
2023-02-03T18:22:25.433Z,11.70
2023-02-03T18:24:52.665Z,11.70
2023-02-03T18:27:19.589Z,11.70
2023-02-03T18:29:48.557Z,11.80
2023-02-03T18:32:16.488Z,11.80
2023-02-03T18:34:43.530Z,11.70
2023-02-03T18:37:11.723Z,11.80
2023-02-03T18:39:38.530Z,11.80
2023-02-03T18:42:07.176Z,11.80
2023-02-03T18:44:33.987Z,11.80
2023-02-03T18:47:06.984Z,11.80
2023-02-03T18:49:35.563Z,11.80
2023-02-03T18:52:02.617Z,11.80
2023-02-03T18:54:29.733Z,11.80
2023-02-03T18:56:59.341Z,11.80
2023-02-03T18:59:26.276Z,11.80
2023-02-03T19:01:53.137Z,11.80
2023-02-03T19:04:20.134Z,11.80
2023-02-03T19:06:47.723Z,11.80
2023-02-03T19:09:19.683Z,11.80
2023-02-03T19:11:46.457Z,11.90
2023-02-03T19:14:15.706Z,11.80
2023-02-03T19:16:44.124Z,11.80
2023-02-03T19:19:14.278Z,11.80
2023-02-03T19:21:41.067Z,11.80
2023-02-03T19:24:08.065Z,11.80
2023-02-03T19:26:37.168Z,11.80
2023-02-03T19:29:03.960Z,11.80
2023-02-03T19:31:32.039Z,11.80
2023-02-03T19:33:59.893Z,11.80
2023-02-03T19:36:33.609Z,11.80
2023-02-03T19:39:00.307Z,11.80
2023-02-03T19:41:27.667Z,11.80
2023-02-03T19:43:56.904Z,11.80
2023-02-03T19:46:27.555Z,11.80
2023-02-03T19:48:54.342Z,11.80
2023-02-03T19:51:21.090Z,11.80
2023-02-03T19:53:49.845Z,11.70
2023-02-03T19:56:19.938Z,11.70
2023-02-03T19:58:54.575Z,11.70
2023-02-03T20:01:23.137Z,11.70
2023-02-03T20:03:52.311Z,11.70
2023-02-03T20:06:20.680Z,11.70
2023-02-03T20:08:53.223Z,11.70
2023-02-03T20:11:21.794Z,11.70
2023-02-03T20:16:40.581Z,11.70
2023-02-03T20:19:09.754Z,11.70
2023-02-03T20:21:36.463Z,11.70
2023-02-03T20:24:04.814Z,11.70
2023-02-03T20:26:32.256Z,11.70
2023-02-03T20:29:00.219Z,11.70
2023-02-03T20:31:27.212Z,11.70
2023-02-03T20:33:56.563Z,11.70
2023-02-03T20:36:24.126Z,11.70
2023-02-03T20:38:54.172Z,11.70
2023-02-03T20:41:21.072Z,11.70
2023-02-03T20:43:48.267Z,11.70
2023-02-03T20:46:19.251Z,11.60
2023-02-03T20:48:47.609Z,11.70
2023-02-03T20:51:17.956Z,11.60
2023-02-03T20:53:45.367Z,11.60
2023-02-03T20:56:19.222Z,11.60
2023-02-03T20:58:52.838Z,11.70
2023-02-03T21:01:21.693Z,11.70
2023-02-03T21:04:08.272Z,11.70
2023-02-03T21:06:38.563Z,11.60
2023-02-03T21:09:17.926Z,11.60
2023-02-03T21:11:45.906Z,11.60
2023-02-03T21:14:32.518Z,11.60
2023-02-03T21:17:00.738Z,11.60
2023-02-03T21:19:32.923Z,11.60
2023-02-03T21:22:07.223Z,11.60
2023-02-03T21:24:39.002Z,11.60
2023-02-03T21:27:33.239Z,11.60
2023-02-03T21:30:05.352Z,11.60
2023-02-03T21:32:40.602Z,11.60
2023-02-03T21:35:46.693Z,11.60
2023-02-03T21:38:32.303Z,11.60
2023-02-03T21:41:20.551Z,11.60
2023-02-03T21:43:57.115Z,11.50
2023-02-03T21:46:32.312Z,11.50
2023-02-03T21:49:04.167Z,11.50
2023-02-03T21:51:35.558Z,11.50
2023-02-03T21:54:23.592Z,11.60
2023-02-03T21:56:54.295Z,11.60
2023-02-03T21:59:29.663Z,11.60
2023-02-03T22:02:00.299Z,11.70
2023-02-03T22:04:28.994Z,11.70
2023-02-03T22:06:58.959Z,11.70
2023-02-03T22:09:26.769Z,11.70
2023-02-03T22:12:01.538Z,11.70
2023-02-03T22:14:28.200Z,11.70
2023-02-03T22:16:54.945Z,11.70
2023-02-03T22:19:22.246Z,11.70
2023-02-03T22:22:12.150Z,11.70
2023-02-03T22:24:38.849Z,11.70
2023-02-03T22:27:06.419Z,11.70
2023-02-03T22:29:33.637Z,11.70
2023-02-03T22:32:00.792Z,11.70
2023-02-03T22:34:27.997Z,11.70
2023-02-03T22:37:04.315Z,11.70
2023-02-03T22:39:31.224Z,11.70
2023-02-03T22:41:57.917Z,11.80
2023-02-03T22:44:26.076Z,11.80
2023-02-03T22:46:53.184Z,11.70
2023-02-03T22:49:20.868Z,11.70
2023-02-03T22:51:47.561Z,11.80
2023-02-03T22:54:14.474Z,11.80
2023-02-03T22:56:41.896Z,11.70
2023-02-03T22:59:08.652Z,11.70
2023-02-03T23:01:38.090Z,11.70
2023-02-03T23:04:04.833Z,11.70
2023-02-03T23:06:33.990Z,11.70
2023-02-03T23:09:00.829Z,11.70
2023-02-03T23:11:30.299Z,11.70
2023-02-03T23:13:57.768Z,11.70
2023-02-03T23:16:24.691Z,11.70
2023-02-03T23:18:53.338Z,11.60
2023-02-03T23:21:20.390Z,11.60
2023-02-03T23:23:48.783Z,11.70
2023-02-03T23:26:15.532Z,11.60
2023-02-03T23:28:42.533Z,11.60
2023-02-03T23:31:11.462Z,11.60
2023-02-03T23:33:38.465Z,11.60
2023-02-03T23:36:06.773Z,11.60
2023-02-03T23:38:38.482Z,11.60
2023-02-03T23:41:08.242Z,11.60
2023-02-03T23:43:35.990Z,11.60
2023-02-03T23:46:03.085Z,11.60
2023-02-03T23:48:30.225Z,11.60
2023-02-03T23:50:57.071Z,11.60
2023-02-03T23:53:27.512Z,11.60
2023-02-03T23:55:58.381Z,11.50
2023-02-03T23:58:26.200Z,11.50
